Orumieh, Iran
Current Conditions -  °F | °C
As of 2:00 AM on Thursday 27 Nov 2014 (Local Time) from OITR Reporting Station
Overcast Overcast  
Wind Chill: 36°   Ceiling: 9000
Heat Index: 39°   Visibility: 6mi
Dew Point: 36°   Wind: 5mph
Humidity: 87%   Direction: 20°NNE
Pressure: 29.94"   Gusts: NA
Location:  37.53°N, 45.08°E
Report Text: OITR 262300Z 02004KT 9999 FEW030CB SCT035 OVC090 04/02 Q1014
Loading
Personal Weather Stations






























Interactive Weather Map New forecast layout! Learn more

10-Day Weather Forecast

Advertisements
Track Severe Weather on mobile